sensor_id;sensor_type;location;lat;lon;timestamp;pressure;altitude;pressure_sealevel;temperature;humidity
44349;BME280;30068;50.986;4.564;2023-05-23T00:01:53;101999.56;;;23.43;54.02
44349;BME280;30068;50.986;4.564;2023-05-23T00:04:19;102013.69;;;23.46;54.02
44349;BME280;30068;50.986;4.564;2023-05-23T00:06:44;102013.03;;;23.44;53.77
44349;BME280;30068;50.986;4.564;2023-05-23T00:09:10;102019.31;;;23.45;53.76
44349;BME280;30068;50.986;4.564;2023-05-23T00:11:36;102015.56;;;23.46;53.77
44349;BME280;30068;50.986;4.564;2023-05-23T00:14:01;102013.88;;;23.45;53.94
44349;BME280;30068;50.986;4.564;2023-05-23T00:16:26;102022.03;;;23.45;53.99
44349;BME280;30068;50.986;4.564;2023-05-23T00:18:51;102024.09;;;23.43;54.01
44349;BME280;30068;50.986;4.564;2023-05-23T00:21:17;102027.00;;;23.41;53.85
44349;BME280;30068;50.986;4.564;2023-05-23T00:23:42;102034.31;;;23.41;54.00
44349;BME280;30068;50.986;4.564;2023-05-23T00:26:08;102023.25;;;23.42;53.88
44349;BME280;30068;50.986;4.564;2023-05-23T00:28:33;102028.88;;;23.41;53.85
44349;BME280;30068;50.986;4.564;2023-05-23T00:30:58;102026.16;;;23.41;54.07
44349;BME280;30068;50.986;4.564;2023-05-23T00:33:24;102027.19;;;23.40;53.98
44349;BME280;30068;50.986;4.564;2023-05-23T00:35:50;102036.03;;;23.42;53.99
44349;BME280;30068;50.986;4.564;2023-05-23T00:38:15;102029.94;;;23.40;54.27
44349;BME280;30068;50.986;4.564;2023-05-23T00:40:40;102034.31;;;23.41;54.15
44349;BME280;30068;50.986;4.564;2023-05-23T00:43:06;102029.25;;;23.38;54.07
44349;BME280;30068;50.986;4.564;2023-05-23T00:45:32;102034.31;;;23.41;54.14
44349;BME280;30068;50.986;4.564;2023-05-23T00:47:57;102033.66;;;23.39;53.93
44349;BME280;30068;50.986;4.564;2023-05-23T00:50:24;102041.66;;;23.40;53.89
44349;BME280;30068;50.986;4.564;2023-05-23T00:52:53;102041.00;;;23.38;53.93
44349;BME280;30068;50.986;4.564;2023-05-23T00:55:18;102045.59;;;23.38;53.85
44349;BME280;30068;50.986;4.564;2023-05-23T00:57:44;102042.88;;;23.38;53.89
44349;BME280;30068;50.986;4.564;2023-05-23T01:00:12;102042.03;;;23.37;54.03
44349;BME280;30068;50.986;4.564;2023-05-23T01:02:39;102049.34;;;23.37;53.77
44349;BME280;30068;50.986;4.564;2023-05-23T01:05:07;102044.75;;;23.37;53.90
44349;BME280;30068;50.986;4.564;2023-05-23T01:07:33;102052.06;;;23.37;53.91
44349;BME280;30068;50.986;4.564;2023-05-23T01:09:58;102042.38;;;23.34;54.01
44349;BME280;30068;50.986;4.564;2023-05-23T01:12:28;102049.50;;;23.35;54.10
44349;BME280;30068;50.986;4.564;2023-05-23T01:15:01;102045.09;;;23.34;53.79
44349;BME280;30068;50.986;4.564;2023-05-23T01:17:38;102050.75;;;23.33;54.03
44349;BME280;30068;50.986;4.564;2023-05-23T01:20:10;102051.38;;;23.35;54.06
44349;BME280;30068;50.986;4.564;2023-05-23T01:27:54;102055.16;;;23.34;53.87
44349;BME280;30068;50.986;4.564;2023-05-23T01:30:20;102048.03;;;23.33;54.05
44349;BME280;30068;50.986;4.564;2023-05-23T01:32:46;102056.19;;;23.33;53.96
44349;BME280;30068;50.986;4.564;2023-05-23T01:35:12;102060.63;;;23.34;54.04
44349;BME280;30068;50.986;4.564;2023-05-23T01:37:39;102059.94;;;23.32;54.01
44349;BME280;30068;50.986;4.564;2023-05-23T01:40:05;102069.81;;;23.33;54.07
44349;BME280;30068;50.986;4.564;2023-05-23T01:42:30;102065.22;;;23.33;53.98
44349;BME280;30068;50.986;4.564;2023-05-23T01:44:55;102059.25;;;23.30;54.28
44349;BME280;30068;50.986;4.564;2023-05-23T01:47:23;102058.91;;;23.33;53.85
44349;BME280;30068;50.986;4.564;2023-05-23T01:49:49;102071.50;;;23.34;53.83
44349;BME280;30068;50.986;4.564;2023-05-23T01:52:14;102066.25;;;23.32;53.89
44349;BME280;30068;50.986;4.564;2023-05-23T01:54:40;102053.81;;;23.30;53.97
44349;BME280;30068;50.986;4.564;2023-05-23T01:57:07;102066.59;;;23.29;54.01
44349;BME280;30068;50.986;4.564;2023-05-23T01:59:33;102063.69;;;23.31;53.94
44349;BME280;30068;50.986;4.564;2023-05-23T02:01:59;102059.25;;;23.30;53.89
44349;BME280;30068;50.986;4.564;2023-05-23T02:04:24;102059.25;;;23.30;53.99
44349;BME280;30068;50.986;4.564;2023-05-23T02:06:51;102064.03;;;23.28;53.85
44349;BME280;30068;50.986;4.564;2023-05-23T02:09:17;102066.59;;;23.29;54.06
44349;BME280;30068;50.986;4.564;2023-05-23T02:11:42;102062.84;;;23.30;53.92
44349;BME280;30068;50.986;4.564;2023-05-23T02:14:08;102061.81;;;23.31;53.85
44349;BME280;30068;50.986;4.564;2023-05-23T02:16:33;102061.31;;;23.28;53.90
44349;BME280;30068;50.986;4.564;2023-05-23T02:19:00;102061.31;;;23.28;53.83
44349;BME280;30068;50.986;4.564;2023-05-23T02:21:26;102057.56;;;23.29;54.08
44349;BME280;30068;50.986;4.564;2023-05-23T02:23:51;102059.81;;;23.25;53.96
44349;BME280;30068;50.986;4.564;2023-05-23T02:26:16;102070.53;;;23.27;53.93
44349;BME280;30068;50.986;4.564;2023-05-23T02:28:42;102068.63;;;23.27;53.87
44349;BME280;30068;50.986;4.564;2023-05-23T02:31:07;102067.13;;;23.24;53.94
44349;BME280;30068;50.986;4.564;2023-05-23T02:33:32;102070.69;;;23.25;53.84
44349;BME280;30068;50.986;4.564;2023-05-23T02:35:57;102074.28;;;23.26;54.12
44349;BME280;30068;50.986;4.564;2023-05-23T02:38:23;102066.09;;;23.26;53.88
44349;BME280;30068;50.986;4.564;2023-05-23T02:40:50;102071.56;;;23.26;53.72
44349;BME280;30068;50.986;4.564;2023-05-23T02:43:17;102074.28;;;23.26;53.95
44349;BME280;30068;50.986;4.564;2023-05-23T02:45:42;102073.59;;;23.23;53.85
44349;BME280;30068;50.986;4.564;2023-05-23T02:48:07;102077.19;;;23.24;53.83
44349;BME280;30068;50.986;4.564;2023-05-23T02:50:33;102080.06;;;23.22;54.24
44349;BME280;30068;50.986;4.564;2023-05-23T02:52:58;102080.91;;;23.23;54.14
44349;BME280;30068;50.986;4.564;2023-05-23T02:55:23;102090.97;;;23.22;53.91
44349;BME280;30068;50.986;4.564;2023-05-23T02:57:48;102090.13;;;23.22;53.87
44349;BME280;30068;50.986;4.564;2023-05-23T03:00:15;102088.25;;;23.22;54.09
44349;BME280;30068;50.986;4.564;2023-05-23T03:02:40;102086.75;;;23.20;54.03
44349;BME280;30068;50.986;4.564;2023-05-23T03:05:05;102091.34;;;23.19;54.18
44349;BME280;30068;50.986;4.564;2023-05-23T03:07:31;102092.19;;;23.20;54.13
44349;BME280;30068;50.986;4.564;2023-05-23T03:09:58;102095.09;;;23.18;53.98
44349;BME280;30068;50.986;4.564;2023-05-23T03:12:23;102101.19;;;23.20;54.13
44349;BME280;30068;50.986;4.564;2023-05-23T03:14:48;102101.38;;;23.19;54.09
44349;BME280;30068;50.986;4.564;2023-05-23T03:17:13;102104.97;;;23.19;54.07
44349;BME280;30068;50.986;4.564;2023-05-23T03:19:39;102105.13;;;23.18;54.04
44349;BME280;30068;50.986;4.564;2023-05-23T03:22:04;102109.72;;;23.17;53.90
44349;BME280;30068;50.986;4.564;2023-05-23T03:24:29;102111.75;;;23.15;54.15
44349;BME280;30068;50.986;4.564;2023-05-23T03:26:56;102117.22;;;23.15;53.95
44349;BME280;30068;50.986;4.564;2023-05-23T03:29:21;102116.19;;;23.16;53.77
44349;BME280;30068;50.986;4.564;2023-05-23T03:31:46;102118.91;;;23.16;53.90
44349;BME280;30068;50.986;4.564;2023-05-23T03:34:11;102119.78;;;23.09;54.04
44349;BME280;30068;50.986;4.564;2023-05-23T03:36:37;102115.03;;;23.11;54.02
44349;BME280;30068;50.986;4.564;2023-05-23T03:39:03;102115.38;;;23.08;53.94
44349;BME280;30068;50.986;4.564;2023-05-23T03:41:28;102115.09;;;22.95;54.47
44349;BME280;30068;50.986;4.564;2023-05-23T03:43:53;102123.50;;;22.61;55.46
44349;BME280;30068;50.986;4.564;2023-05-23T03:46:19;102122.47;;;22.54;55.91
44349;BME280;30068;50.986;4.564;2023-05-23T03:48:44;102121.31;;;22.56;56.04
44349;BME280;30068;50.986;4.564;2023-05-23T03:51:09;102133.72;;;22.51;56.36
44349;BME280;30068;50.986;4.564;2023-05-23T03:53:37;102129.63;;;22.55;56.36
44349;BME280;30068;50.986;4.564;2023-05-23T03:56:02;102132.66;;;22.60;56.05
44349;BME280;30068;50.986;4.564;2023-05-23T03:58:27;102128.94;;;22.61;56.30
44349;BME280;30068;50.986;4.564;2023-05-23T04:00:53;102134.53;;;22.75;55.93
44349;BME280;30068;50.986;4.564;2023-05-23T04:03:18;102136.03;;;22.86;55.66
44349;BME280;30068;50.986;4.564;2023-05-23T04:05:44;102131.44;;;22.87;55.56
44349;BME280;30068;50.986;4.564;2023-05-23T04:08:09;102131.41;;;22.95;55.51
44349;BME280;30068;50.986;4.564;2023-05-23T04:10:34;102116.78;;;22.96;55.40
44349;BME280;30068;50.986;4.564;2023-05-23T04:12:59;102116.94;;;23.02;55.16
44349;BME280;30068;50.986;4.564;2023-05-23T04:15:25;102114.22;;;23.02;55.21
44349;BME280;30068;50.986;4.564;2023-05-23T04:17:51;102130.84;;;23.07;55.25
44349;BME280;30068;50.986;4.564;2023-05-23T04:20:17;102130.69;;;23.09;55.35
44349;BME280;30068;50.986;4.564;2023-05-23T04:22:42;102132.22;;;23.11;55.15
44349;BME280;30068;50.986;4.564;2023-05-23T04:25:07;102135.59;;;23.13;55.15
44349;BME280;30068;50.986;4.564;2023-05-23T04:27:33;102141.56;;;23.09;55.27
44349;BME280;30068;50.986;4.564;2023-05-23T04:29:58;102138.31;;;23.13;55.32
44349;BME280;30068;50.986;4.564;2023-05-23T04:32:24;102129.81;;;23.16;54.89
44349;BME280;30068;50.986;4.564;2023-05-23T04:34:50;102132.53;;;23.16;54.82
44349;BME280;30068;50.986;4.564;2023-05-23T04:37:16;102134.53;;;23.22;54.89
44349;BME280;30068;50.986;4.564;2023-05-23T04:39:46;102134.38;;;23.24;54.84
44349;BME280;30068;50.986;4.564;2023-05-23T04:42:11;102140.28;;;23.28;54.69
44349;BME280;30068;50.986;4.564;2023-05-23T04:44:36;102146.97;;;23.25;54.65
44349;BME280;30068;50.986;4.564;2023-05-23T04:47:01;102145.94;;;23.26;54.79
44349;BME280;30068;50.986;4.564;2023-05-23T04:49:27;102151.88;;;23.30;54.64
44349;BME280;30068;50.986;4.564;2023-05-23T04:51:53;102158.72;;;23.26;54.66
44349;BME280;30068;50.986;4.564;2023-05-23T04:54:18;102152.91;;;23.29;54.77
44349;BME280;30068;50.986;4.564;2023-05-23T04:56:43;102152.38;;;23.33;54.73
44349;BME280;30068;50.986;4.564;2023-05-23T04:59:09;102151.53;;;23.33;54.49
44349;BME280;30068;50.986;4.564;2023-05-23T05:01:35;102154.44;;;23.31;54.49
44349;BME280;30068;50.986;4.564;2023-05-23T05:04:04;102154.56;;;23.38;54.60
44349;BME280;30068;50.986;4.564;2023-05-23T05:06:29;102149.28;;;23.36;54.56
44349;BME280;30068;50.986;4.564;2023-05-23T05:08:54;102158.31;;;23.37;54.67
44349;BME280;30068;50.986;4.564;2023-05-23T05:11:20;102163.22;;;23.41;54.33
44349;BME280;30068;50.986;4.564;2023-05-23T05:13:46;102157.28;;;23.38;54.73
44349;BME280;30068;50.986;4.564;2023-05-23T05:16:11;102157.97;;;23.40;54.48
44349;BME280;30068;50.986;4.564;2023-05-23T05:18:37;102160.69;;;23.40;54.43
44349;BME280;30068;50.986;4.564;2023-05-23T05:21:02;102165.94;;;23.41;54.24
44349;BME280;30068;50.986;4.564;2023-05-23T05:23:29;102164.75;;;23.44;54.28
44349;BME280;30068;50.986;4.564;2023-05-23T05:25:55;102163.56;;;23.46;54.19
44349;BME280;30068;50.986;4.564;2023-05-23T05:28:21;102164.75;;;23.44;54.49
44349;BME280;30068;50.986;4.564;2023-05-23T05:30:46;102165.31;;;23.31;54.61
44349;BME280;30068;50.986;4.564;2023-05-23T05:33:12;102170.75;;;22.92;55.60
44349;BME280;30068;50.986;4.564;2023-05-23T05:35:37;102179.97;;;22.75;56.35
44349;BME280;30068;50.986;4.564;2023-05-23T05:38:02;102174.69;;;22.65;56.76
44349;BME280;30068;50.986;4.564;2023-05-23T05:40:28;102186.75;;;22.63;56.63
44349;BME280;30068;50.986;4.564;2023-05-23T05:42:54;102187.94;;;22.60;56.91
44349;BME280;30068;50.986;4.564;2023-05-23T05:45:19;102188.47;;;22.72;56.77
44349;BME280;30068;50.986;4.564;2023-05-23T05:47:45;102176.88;;;22.70;56.61
44349;BME280;30068;50.986;4.564;2023-05-23T05:50:10;102188.81;;;22.77;56.55
44349;BME280;30068;50.986;4.564;2023-05-23T05:52:36;102185.72;;;22.88;56.27
44349;BME280;30068;50.986;4.564;2023-05-23T05:55:09;102198.63;;;22.86;56.32
44349;BME280;30068;50.986;4.564;2023-05-23T05:57:35;102199.31;;;22.96;56.02
44349;BME280;30068;50.986;4.564;2023-05-23T06:00:03;102200.19;;;22.89;56.08
44349;BME280;30068;50.986;4.564;2023-05-23T06:02:35;102201.16;;;23.04;55.66
44349;BME280;30068;50.986;4.564;2023-05-23T06:05:00;102197.28;;;22.98;55.91
44349;BME280;30068;50.986;4.564;2023-05-23T06:07:26;102211.91;;;22.97;55.86
44349;BME280;30068;50.986;4.564;2023-05-23T06:09:51;102210.88;;;22.98;55.92
44349;BME280;30068;50.986;4.564;2023-05-23T06:12:16;102223.50;;;22.91;55.99
44349;BME280;30068;50.986;4.564;2023-05-23T06:14:41;102221.41;;;23.09;55.34
44349;BME280;30068;50.986;4.564;2023-05-23T06:17:07;102216.63;;;23.19;55.13
44349;BME280;30068;50.986;4.564;2023-05-23T06:19:32;102225.66;;;23.12;55.33
44349;BME280;30068;50.986;4.564;2023-05-23T06:21:58;102227.88;;;23.00;55.71
44349;BME280;30068;50.986;4.564;2023-05-23T06:24:24;102228.56;;;23.10;55.09
44349;BME280;30068;50.986;4.564;2023-05-23T06:26:49;102229.88;;;23.14;55.08
44349;BME280;30068;50.986;4.564;2023-05-23T06:29:14;102231.25;;;23.18;54.92
44349;BME280;30068;50.986;4.564;2023-05-23T06:31:40;102236.34;;;23.13;55.27
44349;BME280;30068;50.986;4.564;2023-05-23T06:34:05;102232.44;;;23.24;54.91
44349;BME280;30068;50.986;4.564;2023-05-23T06:36:30;102223.72;;;23.20;55.02
44349;BME280;30068;50.986;4.564;2023-05-23T06:38:55;102234.63;;;23.20;54.75
44349;BME280;30068;50.986;4.564;2023-05-23T06:41:21;102234.97;;;23.34;54.46
44349;BME280;30068;50.986;4.564;2023-05-23T06:43:46;102235.34;;;23.14;54.92
44349;BME280;30068;50.986;4.564;2023-05-23T06:46:11;102239.72;;;23.32;54.34
44349;BME280;30068;50.986;4.564;2023-05-23T06:48:37;102242.63;;;23.30;54.38
44349;BME280;30068;50.986;4.564;2023-05-23T06:51:02;102258.13;;;23.21;54.48
44349;BME280;30068;50.986;4.564;2023-05-23T06:53:27;102251.97;;;23.28;54.28
44349;BME280;30068;50.986;4.564;2023-05-23T06:55:53;102255.34;;;23.46;53.41
44349;BME280;30068;50.986;4.564;2023-05-23T06:58:18;102259.09;;;23.45;53.60
44349;BME280;30068;50.986;4.564;2023-05-23T07:00:43;102261.69;;;23.30;54.05
44349;BME280;30068;50.986;4.564;2023-05-23T07:03:08;102258.25;;;23.36;53.76
44349;BME280;30068;50.986;4.564;2023-05-23T07:05:33;102253.63;;;23.45;53.50
44349;BME280;30068;50.986;4.564;2023-05-23T07:08:00;102262.84;;;23.44;53.58
44349;BME280;30068;50.986;4.564;2023-05-23T07:10:25;102262.19;;;23.34;53.67
44349;BME280;30068;50.986;4.564;2023-05-23T07:12:51;102264.53;;;23.45;53.47
44349;BME280;30068;50.986;4.564;2023-05-23T07:15:16;102263.19;;;23.49;53.37
44349;BME280;30068;50.986;4.564;2023-05-23T07:17:41;102262.47;;;23.55;52.98
44349;BME280;30068;50.986;4.564;2023-05-23T07:20:07;102270.47;;;23.56;53.17
44349;BME280;30068;50.986;4.564;2023-05-23T07:22:32;102267.06;;;23.54;53.08
44349;BME280;30068;50.986;4.564;2023-05-23T07:24:57;102276.13;;;23.47;53.50
44349;BME280;30068;50.986;4.564;2023-05-23T07:27:22;102278.31;;;23.59;52.89
44349;BME280;30068;50.986;4.564;2023-05-23T07:29:48;102276.63;;;23.50;53.14
44349;BME280;30068;50.986;4.564;2023-05-23T07:32:13;102282.91;;;23.59;52.75
44349;BME280;30068;50.986;4.564;2023-05-23T07:34:38;102281.22;;;23.50;53.10
44349;BME280;30068;50.986;4.564;2023-05-23T07:37:04;102280.03;;;23.60;53.01
44349;BME280;30068;50.986;4.564;2023-05-23T07:39:29;102278.78;;;23.63;52.67
44349;BME280;30068;50.986;4.564;2023-05-23T07:41:54;102277.59;;;23.66;52.38
44349;BME280;30068;50.986;4.564;2023-05-23T07:44:19;102279.16;;;23.60;52.55
44349;BME280;30068;50.986;4.564;2023-05-23T07:46:45;102280.84;;;23.61;52.47
44349;BME280;30068;50.986;4.564;2023-05-23T07:49:10;102275.72;;;23.66;52.42
44349;BME280;30068;50.986;4.564;2023-05-23T07:51:35;102277.94;;;23.62;52.62
44349;BME280;30068;50.986;4.564;2023-05-23T07:54:01;102285.31;;;23.54;53.06
44349;BME280;30068;50.986;4.564;2023-05-23T07:56:26;102281.00;;;23.68;52.50
44349;BME280;30068;50.986;4.564;2023-05-23T07:58:51;102279.66;;;23.63;52.48
44349;BME280;30068;50.986;4.564;2023-05-23T08:01:16;102273.00;;;23.66;52.37
44349;BME280;30068;50.986;4.564;2023-05-23T08:03:42;102295.16;;;23.63;52.49
44349;BME280;30068;50.986;4.564;2023-05-23T08:06:07;102288.69;;;23.56;52.61
44349;BME280;30068;50.986;4.564;2023-05-23T08:08:33;102281.69;;;23.61;52.48
44349;BME280;30068;50.986;4.564;2023-05-23T08:10:58;102285.94;;;23.64;52.80
44349;BME280;30068;50.986;4.564;2023-05-23T08:13:23;102292.25;;;23.65;52.53
44349;BME280;30068;50.986;4.564;2023-05-23T08:15:49;102293.44;;;23.62;52.45
44349;BME280;30068;50.986;4.564;2023-05-23T08:18:14;102295.66;;;23.67;52.43
44349;BME280;30068;50.986;4.564;2023-05-23T08:20:40;102298.59;;;23.57;52.65
44349;BME280;30068;50.986;4.564;2023-05-23T08:23:06;102303.34;;;23.55;52.72
44349;BME280;30068;50.986;4.564;2023-05-23T08:25:31;102301.44;;;23.63;52.42
44349;BME280;30068;50.986;4.564;2023-05-23T08:27:57;102312.19;;;23.65;51.96
44349;BME280;30068;50.986;4.564;2023-05-23T08:30:25;102307.75;;;23.64;52.17
44349;BME280;30068;50.986;4.564;2023-05-23T08:32:51;102313.72;;;23.68;52.00
44349;BME280;30068;50.986;4.564;2023-05-23T08:35:17;102313.22;;;23.64;51.96
44349;BME280;30068;50.986;4.564;2023-05-23T08:37:42;102320.69;;;23.70;51.56
44349;BME280;30068;50.986;4.564;2023-05-23T08:40:12;102312.50;;;23.70;51.71
44349;BME280;30068;50.986;4.564;2023-05-23T08:42:38;102314.91;;;23.65;52.12
44349;BME280;30068;50.986;4.564;2023-05-23T08:45:03;102315.63;;;23.59;52.10
44349;BME280;30068;50.986;4.564;2023-05-23T08:47:29;102317.63;;;23.65;51.89
44349;BME280;30068;50.986;4.564;2023-05-23T08:49:58;102323.41;;;23.62;51.83
44349;BME280;30068;50.986;4.564;2023-05-23T08:52:24;102330.56;;;23.63;51.59
44349;BME280;30068;50.986;4.564;2023-05-23T08:54:49;102334.69;;;23.67;51.72
44349;BME280;30068;50.986;4.564;2023-05-23T08:57:15;102332.59;;;23.69;51.59
44349;BME280;30068;50.986;4.564;2023-05-23T08:59:40;102333.31;;;23.63;51.83
44349;BME280;30068;50.986;4.564;2023-05-23T09:02:07;102334.69;;;23.67;51.96
44349;BME280;30068;50.986;4.564;2023-05-23T09:04:34;102327.53;;;23.66;51.60
44349;BME280;30068;50.986;4.564;2023-05-23T09:07:00;102330.25;;;23.66;51.75
44349;BME280;30068;50.986;4.564;2023-05-23T09:09:26;102337.06;;;23.62;51.75
44349;BME280;30068;50.986;4.564;2023-05-23T09:11:52;102339.28;;;23.67;51.66
44349;BME280;30068;50.986;4.564;2023-05-23T09:14:18;102341.16;;;23.66;51.54
44349;BME280;30068;50.986;4.564;2023-05-23T09:16:45;102339.59;;;23.63;51.58
44349;BME280;30068;50.986;4.564;2023-05-23T09:19:12;102333.69;;;23.60;52.24
44349;BME280;30068;50.986;4.564;2023-05-23T09:21:41;102333.81;;;23.67;51.94
44349;BME280;30068;50.986;4.564;2023-05-23T09:24:07;102340.78;;;23.61;51.77
44349;BME280;30068;50.986;4.564;2023-05-23T09:26:32;102340.47;;;23.64;51.52
44349;BME280;30068;50.986;4.564;2023-05-23T09:28:58;102342.16;;;23.65;51.51
44349;BME280;30068;50.986;4.564;2023-05-23T09:31:25;102348.81;;;23.62;51.84
44349;BME280;30068;50.986;4.564;2023-05-23T09:33:50;102339.44;;;23.65;51.87
44349;BME280;30068;50.986;4.564;2023-05-23T09:36:16;102341.16;;;23.58;52.02
44349;BME280;30068;50.986;4.564;2023-05-23T09:38:42;102332.44;;;23.62;51.70
44349;BME280;30068;50.986;4.564;2023-05-23T09:41:07;102340.78;;;23.61;51.80
44349;BME280;30068;50.986;4.564;2023-05-23T09:43:36;102345.59;;;23.59;52.05
44349;BME280;30068;50.986;4.564;2023-05-23T09:46:08;102344.22;;;23.63;51.99
44349;BME280;30068;50.986;4.564;2023-05-23T09:48:34;102344.22;;;23.63;51.58
44349;BME280;30068;50.986;4.564;2023-05-23T09:51:02;102350.50;;;23.63;51.84
44349;BME280;30068;50.986;4.564;2023-05-23T09:53:28;102343.19;;;23.64;51.65
44349;BME280;30068;50.986;4.564;2023-05-23T09:55:53;102345.06;;;23.63;51.93
44349;BME280;30068;50.986;4.564;2023-05-23T09:58:20;102341.66;;;23.61;52.02
44349;BME280;30068;50.986;4.564;2023-05-23T10:00:48;102343.53;;;23.61;51.62
44349;BME280;30068;50.986;4.564;2023-05-23T10:03:14;102347.94;;;23.62;51.98
44349;BME280;30068;50.986;4.564;2023-05-23T10:08:07;102351.69;;;23.61;51.91
44349;BME280;30068;50.986;4.564;2023-05-23T10:10:34;102352.38;;;23.63;51.85
44349;BME280;30068;50.986;4.564;2023-05-23T10:13:14;102354.44;;;23.61;51.87
44349;BME280;30068;50.986;4.564;2023-05-23T10:15:40;102350.50;;;23.63;51.57
44349;BME280;30068;50.986;4.564;2023-05-23T10:18:11;102360.56;;;23.63;51.80
44349;BME280;30068;50.986;4.564;2023-05-23T10:20:42;102357.16;;;23.61;51.93
44349;BME280;30068;50.986;4.564;2023-05-23T10:23:09;102350.03;;;23.60;51.92
44349;BME280;30068;50.986;4.564;2023-05-23T10:25:35;102360.56;;;23.63;51.89
44349;BME280;30068;50.986;4.564;2023-05-23T10:28:01;102347.94;;;23.62;51.72
44349;BME280;30068;50.986;4.564;2023-05-23T10:30:28;102344.56;;;23.60;51.97
44349;BME280;30068;50.986;4.564;2023-05-23T10:32:54;102343.34;;;23.62;51.94
44349;BME280;30068;50.986;4.564;2023-05-23T10:35:24;102346.25;;;23.61;51.77
44349;BME280;30068;50.986;4.564;2023-05-23T10:38:06;102342.88;;;23.59;51.85
44349;BME280;30068;50.986;4.564;2023-05-23T10:45:40;102345.44;;;23.60;52.09
44349;BME280;30068;50.986;4.564;2023-05-23T10:48:31;102336.91;;;23.55;51.92
44349;BME280;30068;50.986;4.564;2023-05-23T10:51:05;102340.78;;;23.61;51.93
44349;BME280;30068;50.986;4.564;2023-05-23T10:53:31;102340.78;;;23.61;51.84
44349;BME280;30068;50.986;4.564;2023-05-23T10:55:58;102343.53;;;23.61;51.71
44349;BME280;30068;50.986;4.564;2023-05-23T10:58:23;102338.75;;;23.63;51.90
44349;BME280;30068;50.986;4.564;2023-05-23T11:00:52;102339.78;;;23.62;51.84
44349;BME280;30068;50.986;4.564;2023-05-23T11:03:18;102342.50;;;23.62;51.93
44349;BME280;30068;50.986;4.564;2023-05-23T11:05:54;102333.31;;;23.63;51.85
44349;BME280;30068;50.986;4.564;2023-05-23T11:08:19;102333.31;;;23.63;51.66
44349;BME280;30068;50.986;4.564;2023-05-23T11:13:19;102337.06;;;23.62;51.74
44349;BME280;30068;50.986;4.564;2023-05-23T11:15:48;102326.16;;;23.62;51.88
44349;BME280;30068;50.986;4.564;2023-05-23T11:18:34;102326.16;;;23.62;51.71
44349;BME280;30068;50.986;4.564;2023-05-23T11:20:58;102328.88;;;23.62;51.86
44349;BME280;30068;50.986;4.564;2023-05-23T11:23:24;102332.63;;;23.61;51.96
44349;BME280;30068;50.986;4.564;2023-05-23T11:26:03;102340.78;;;23.61;52.04
44349;BME280;30068;50.986;4.564;2023-05-23T11:28:29;102339.97;;;23.60;51.82
44349;BME280;30068;50.986;4.564;2023-05-23T11:30:55;102347.94;;;23.62;51.93
44349;BME280;30068;50.986;4.564;2023-05-23T11:33:21;102347.31;;;23.60;52.01
44349;BME280;30068;50.986;4.564;2023-05-23T11:35:46;102345.22;;;23.62;51.62
44349;BME280;30068;50.986;4.564;2023-05-23T11:38:15;102338.75;;;23.63;51.39
44349;BME280;30068;50.986;4.564;2023-05-23T11:40:41;102344.22;;;23.63;51.43
44349;BME280;30068;50.986;4.564;2023-05-23T11:43:07;102341.66;;;23.61;51.66
44349;BME280;30068;50.986;4.564;2023-05-23T11:45:34;102347.09;;;23.61;51.65
44349;BME280;30068;50.986;4.564;2023-05-23T11:48:09;102337.06;;;23.62;52.03
44349;BME280;30068;50.986;4.564;2023-05-23T11:51:09;102341.47;;;23.63;51.80
44349;BME280;30068;50.986;4.564;2023-05-23T11:53:27;102331.59;;;23.62;51.68
44349;BME280;30068;50.986;4.564;2023-05-23T11:55:53;102335.34;;;23.61;51.86
44349;BME280;30068;50.986;4.564;2023-05-23T11:58:19;102334.31;;;23.62;51.57
44349;BME280;30068;50.986;4.564;2023-05-23T12:00:45;102335.34;;;23.61;51.49
44349;BME280;30068;50.986;4.564;2023-05-23T12:03:10;102340.78;;;23.61;51.82
44349;BME280;30068;50.986;4.564;2023-05-23T12:05:36;102336.19;;;23.61;51.58
44349;BME280;30068;50.986;4.564;2023-05-23T12:08:01;102332.81;;;23.59;51.66
44349;BME280;30068;50.986;4.564;2023-05-23T12:10:26;102339.13;;;23.60;51.43
44349;BME280;30068;50.986;4.564;2023-05-23T12:12:52;102335.34;;;23.61;51.17
44349;BME280;30068;50.986;4.564;2023-05-23T12:15:17;102330.75;;;23.61;51.25
44349;BME280;30068;50.986;4.564;2023-05-23T12:17:43;102340.78;;;23.61;51.30
44349;BME280;30068;50.986;4.564;2023-05-23T12:20:10;102328.03;;;23.61;51.21
44349;BME280;30068;50.986;4.564;2023-05-23T12:22:36;102334.16;;;23.63;51.14
44349;BME280;30068;50.986;4.564;2023-05-23T12:25:01;102340.63;;;23.62;51.29
44349;BME280;30068;50.986;4.564;2023-05-23T12:27:30;102343.34;;;23.62;51.38
44349;BME280;30068;50.986;4.564;2023-05-23T12:30:39;102335.19;;;23.62;51.39
44349;BME280;30068;50.986;4.564;2023-05-23T12:32:49;102339.13;;;23.60;51.27
44349;BME280;30068;50.986;4.564;2023-05-23T12:35:14;102335.34;;;23.61;51.64
44349;BME280;30068;50.986;4.564;2023-05-23T12:40:13;102343.53;;;23.61;51.38
44349;BME280;30068;50.986;4.564;2023-05-23T12:42:49;102338.91;;;23.61;51.27
44349;BME280;30068;50.986;4.564;2023-05-23T12:45:15;102347.94;;;23.62;51.27
44349;BME280;30068;50.986;4.564;2023-05-23T12:47:40;102347.94;;;23.62;51.28
44349;BME280;30068;50.986;4.564;2023-05-23T12:50:06;102353.41;;;23.62;51.09
44349;BME280;30068;50.986;4.564;2023-05-23T12:52:31;102351.69;;;23.61;51.04
44349;BME280;30068;50.986;4.564;2023-05-23T12:54:56;102352.56;;;23.61;51.03
44349;BME280;30068;50.986;4.564;2023-05-23T12:57:22;102342.50;;;23.62;51.13
44349;BME280;30068;50.986;4.564;2023-05-23T12:59:47;102342.88;;;23.59;51.43
44349;BME280;30068;50.986;4.564;2023-05-23T13:02:12;102344.56;;;23.60;51.23
44349;BME280;30068;50.986;4.564;2023-05-23T13:04:38;102343.88;;;23.58;51.27